sensor_id;sensor_type;location;lat;lon;timestamp;pressure;altitude;pressure_sealevel;temperature;humidity
62544;BME280;48597;49.030;1.822;2022-12-29T00:01:27;99719.50;;;19.66;46.71
62544;BME280;48597;49.030;1.822;2022-12-29T00:03:53;99721.88;;;19.67;46.68
62544;BME280;48597;49.030;1.822;2022-12-29T00:06:18;99721.09;;;19.67;46.65
62544;BME280;48597;49.030;1.822;2022-12-29T00:08:43;99729.19;;;19.68;46.58
62544;BME280;48597;49.030;1.822;2022-12-29T00:11:17;99718.53;;;19.69;46.66
62544;BME280;48597;49.030;1.822;2022-12-29T00:13:47;99719.81;;;19.68;46.74
62544;BME280;48597;49.030;1.822;2022-12-29T00:16:32;99715.38;;;19.67;46.72
62544;BME280;48597;49.030;1.822;2022-12-29T00:18:58;99716.16;;;19.67;46.75
62544;BME280;48597;49.030;1.822;2022-12-29T00:21:24;99707.91;;;19.69;46.67
62544;BME280;48597;49.030;1.822;2022-12-29T00:24:14;99696.94;;;19.68;46.75
62544;BME280;48597;49.030;1.822;2022-12-29T00:26:58;99698.53;;;19.69;46.77
62544;BME280;48597;49.030;1.822;2022-12-29T00:29:51;99692.03;;;19.68;46.72
62544;BME280;48597;49.030;1.822;2022-12-29T00:32:36;99692.81;;;19.69;46.79
62544;BME280;48597;49.030;1.822;2022-12-29T00:35:28;99692.34;;;19.70;46.76
62544;BME280;48597;49.030;1.822;2022-12-29T00:37:55;99681.69;;;19.71;46.83
62544;BME280;48597;49.030;1.822;2022-12-29T00:40:41;99682.97;;;19.70;46.86
62544;BME280;48597;49.030;1.822;2022-12-29T00:43:25;99673.59;;;19.69;46.83
62544;BME280;48597;49.030;1.822;2022-12-29T00:46:09;99684.56;;;19.71;46.85
62544;BME280;48597;49.030;1.822;2022-12-29T00:48:34;99691.88;;;19.72;46.98
62544;BME280;48597;49.030;1.822;2022-12-29T00:51:18;99687.41;;;19.71;46.84
62544;BME280;48597;49.030;1.822;2022-12-29T00:53:43;99694.72;;;19.72;46.86
62544;BME280;48597;49.030;1.822;2022-12-29T00:56:08;99695.00;;;19.74;46.80
62544;BME280;48597;49.030;1.822;2022-12-29T00:58:34;99694.25;;;19.73;46.90
62544;BME280;48597;49.030;1.822;2022-12-29T01:01:03;99680.72;;;19.74;46.83
62544;BME280;48597;49.030;1.822;2022-12-29T01:03:29;99688.53;;;19.73;46.84
62544;BME280;48597;49.030;1.822;2022-12-29T01:05:55;99688.03;;;19.75;46.86
62544;BME280;48597;49.030;1.822;2022-12-29T01:08:20;99683.09;;;19.75;46.87
62544;BME280;48597;49.030;1.822;2022-12-29T01:10:46;99682.31;;;19.75;46.93
62544;BME280;48597;49.030;1.822;2022-12-29T01:13:11;99676.59;;;19.75;46.87
62544;BME280;48597;49.030;1.822;2022-12-29T01:15:36;99665.16;;;19.75;46.90
62544;BME280;48597;49.030;1.822;2022-12-29T01:18:02;99675.00;;;19.74;46.81
62544;BME280;48597;49.030;1.822;2022-12-29T01:20:27;99683.09;;;19.75;46.95
62544;BME280;48597;49.030;1.822;2022-12-29T01:22:53;99681.50;;;19.74;46.78
62544;BME280;48597;49.030;1.822;2022-12-29T01:25:19;99683.09;;;19.75;46.96
62544;BME280;48597;49.030;1.822;2022-12-29T01:27:44;99686.75;;;19.76;46.95
62544;BME280;48597;49.030;1.822;2022-12-29T01:30:10;99678.19;;;19.76;47.01
62544;BME280;48597;49.030;1.822;2022-12-29T01:32:35;99679.78;;;19.77;46.88
62544;BME280;48597;49.030;1.822;2022-12-29T01:35:01;99682.63;;;19.77;46.85
62544;BME280;48597;49.030;1.822;2022-12-29T01:37:26;99685.47;;;19.77;46.87
62544;BME280;48597;49.030;1.822;2022-12-29T01:39:52;99692.00;;;19.77;47.01
62544;BME280;48597;49.030;1.822;2022-12-29T01:42:19;99696.91;;;19.77;46.93
62544;BME280;48597;49.030;1.822;2022-12-29T01:50:04;99696.91;;;19.77;47.06
62544;BME280;48597;49.030;1.822;2022-12-29T01:52:33;99700.09;;;19.79;47.04
62544;BME280;48597;49.030;1.822;2022-12-29T01:55:01;99696.44;;;19.78;46.84
62544;BME280;48597;49.030;1.822;2022-12-29T01:57:32;99707.41;;;19.80;46.90
62544;BME280;48597;49.030;1.822;2022-12-29T02:00:05;99698.84;;;19.80;46.87
62544;BME280;48597;49.030;1.822;2022-12-29T02:02:32;99714.41;;;19.79;46.89
62544;BME280;48597;49.030;1.822;2022-12-29T02:04:59;99709.47;;;19.79;46.84
62544;BME280;48597;49.030;1.822;2022-12-29T02:07:28;99717.25;;;19.79;46.77
62544;BME280;48597;49.030;1.822;2022-12-29T02:09:55;99720.13;;;19.79;46.85
62544;BME280;48597;49.030;1.822;2022-12-29T02:12:21;99714.41;;;19.79;46.96
62544;BME280;48597;49.030;1.822;2022-12-29T02:14:51;99704.56;;;19.80;46.84
62544;BME280;48597;49.030;1.822;2022-12-29T02:36:47;99705.66;;;19.82;46.88
62544;BME280;48597;49.030;1.822;2022-12-29T02:47:23;99707.72;;;19.82;46.61
62544;BME280;48597;49.030;1.822;2022-12-29T02:50:21;99713.44;;;19.82;46.76
62544;BME280;48597;49.030;1.822;2022-12-29T02:52:56;99717.09;;;19.82;46.91
62544;BME280;48597;49.030;1.822;2022-12-29T02:55:23;99716.31;;;19.82;46.79
62544;BME280;48597;49.030;1.822;2022-12-29T02:57:49;99706.94;;;19.81;46.89
62544;BME280;48597;49.030;1.822;2022-12-29T03:00:29;99712.19;;;19.83;46.89
62544;BME280;48597;49.030;1.822;2022-12-29T03:03:14;99710.59;;;19.82;46.76
62544;BME280;48597;49.030;1.822;2022-12-29T03:08:46;99693.13;;;19.80;46.85
62544;BME280;48597;49.030;1.822;2022-12-29T03:11:14;99698.84;;;19.80;46.82
62544;BME280;48597;49.030;1.822;2022-12-29T03:14:08;99700.41;;;19.81;46.99
62544;BME280;48597;49.030;1.822;2022-12-29T03:17:08;99706.94;;;19.81;46.92
62544;BME280;48597;49.030;1.822;2022-12-29T03:19:37;99700.91;;;19.79;46.90
62544;BME280;48597;49.030;1.822;2022-12-29T03:22:28;99705.34;;;19.80;46.88
62544;BME280;48597;49.030;1.822;2022-12-29T03:27:36;99708.19;;;19.80;46.83
62544;BME280;48597;49.030;1.822;2022-12-29T03:30:04;99707.41;;;19.80;46.81
62544;BME280;48597;49.030;1.822;2022-12-29T03:32:35;99718.84;;;19.80;46.82
62544;BME280;48597;49.030;1.822;2022-12-29T03:35:02;99711.06;;;19.80;46.77
62544;BME280;48597;49.030;1.822;2022-12-29T03:37:35;99716.31;;;19.82;46.82
62544;BME280;48597;49.030;1.822;2022-12-29T03:40:01;99719.63;;;19.80;46.77
62544;BME280;48597;49.030;1.822;2022-12-29T03:42:28;99710.59;;;19.82;46.74
62544;BME280;48597;49.030;1.822;2022-12-29T03:44:56;99715.50;;;19.81;46.75
62544;BME280;48597;49.030;1.822;2022-12-29T03:47:23;99721.22;;;19.81;46.80
62544;BME280;48597;49.030;1.822;2022-12-29T03:49:49;99719.16;;;19.82;46.88
62544;BME280;48597;49.030;1.822;2022-12-29T03:52:15;99715.50;;;19.81;46.81
62544;BME280;48597;49.030;1.822;2022-12-29T03:54:41;99728.22;;;19.80;46.75
62544;BME280;48597;49.030;1.822;2022-12-29T03:57:06;99729.00;;;19.81;46.88
62544;BME280;48597;49.030;1.822;2022-12-29T03:59:31;99737.28;;;19.79;46.70
62544;BME280;48597;49.030;1.822;2022-12-29T04:01:57;99733.16;;;19.80;46.78
62544;BME280;48597;49.030;1.822;2022-12-29T04:04:22;99733.94;;;19.80;46.81
62544;BME280;48597;49.030;1.822;2022-12-29T04:06:48;99734.72;;;19.81;46.79
62544;BME280;48597;49.030;1.822;2022-12-29T04:09:13;99739.66;;;19.80;46.79
62544;BME280;48597;49.030;1.822;2022-12-29T04:11:38;99749.03;;;19.81;46.79
62544;BME280;48597;49.030;1.822;2022-12-29T04:14:04;99755.53;;;19.81;46.77
62544;BME280;48597;49.030;1.822;2022-12-29T04:16:29;99754.75;;;19.81;46.74
62544;BME280;48597;49.030;1.822;2022-12-29T04:18:55;99761.75;;;19.80;46.79
62544;BME280;48597;49.030;1.822;2022-12-29T04:21:20;99766.19;;;19.81;46.83
62544;BME280;48597;49.030;1.822;2022-12-29T04:23:45;99768.72;;;19.79;46.84
62544;BME280;48597;49.030;1.822;2022-12-29T04:26:11;99763.00;;;19.79;46.81
62544;BME280;48597;49.030;1.822;2022-12-29T04:28:37;99760.47;;;19.81;46.89
62544;BME280;48597;49.030;1.822;2022-12-29T04:31:03;99776.81;;;19.80;46.71
62544;BME280;48597;49.030;1.822;2022-12-29T04:33:29;99771.91;;;19.81;46.81
62544;BME280;48597;49.030;1.822;2022-12-29T04:35:54;99775.56;;;19.81;46.70
62544;BME280;48597;49.030;1.822;2022-12-29T04:38:20;99781.28;;;19.81;46.68
62544;BME280;48597;49.030;1.822;2022-12-29T04:40:46;99774.75;;;19.81;46.76
62544;BME280;48597;49.030;1.822;2022-12-29T04:43:12;99778.91;;;19.80;46.85
62544;BME280;48597;49.030;1.822;2022-12-29T04:45:38;99786.22;;;19.81;46.96
62544;BME280;48597;49.030;1.822;2022-12-29T04:48:04;99789.06;;;19.81;46.76
62544;BME280;48597;49.030;1.822;2022-12-29T04:50:30;99780.00;;;19.82;46.80
62544;BME280;48597;49.030;1.822;2022-12-29T04:52:55;99785.72;;;19.82;46.87
62544;BME280;48597;49.030;1.822;2022-12-29T04:55:21;99787.78;;;19.82;46.65
62544;BME280;48597;49.030;1.822;2022-12-29T04:57:46;99784.94;;;19.82;46.64
62544;BME280;48597;49.030;1.822;2022-12-29T05:00:12;99790.66;;;19.82;46.71
62544;BME280;48597;49.030;1.822;2022-12-29T05:02:38;99784.94;;;19.82;46.81
62544;BME280;48597;49.030;1.822;2022-12-29T05:05:04;99790.66;;;19.82;46.79
62544;BME280;48597;49.030;1.822;2022-12-29T05:07:29;99787.00;;;19.81;46.76
62544;BME280;48597;49.030;1.822;2022-12-29T05:09:55;99786.22;;;19.81;46.72
62544;BME280;48597;49.030;1.822;2022-12-29T05:12:20;99791.44;;;19.82;46.78
62544;BME280;48597;49.030;1.822;2022-12-29T05:14:46;99787.00;;;19.81;46.71
62544;BME280;48597;49.030;1.822;2022-12-29T05:17:11;99799.22;;;19.82;46.81
62544;BME280;48597;49.030;1.822;2022-12-29T05:19:37;99794.78;;;19.81;46.77
62544;BME280;48597;49.030;1.822;2022-12-29T05:22:03;99808.59;;;19.82;46.75
62544;BME280;48597;49.030;1.822;2022-12-29T05:24:28;99809.09;;;19.81;46.75
62544;BME280;48597;49.030;1.822;2022-12-29T05:26:54;99807.81;;;19.82;46.74
62544;BME280;48597;49.030;1.822;2022-12-29T05:29:19;99806.53;;;19.83;46.65
62544;BME280;48597;49.030;1.822;2022-12-29T05:31:44;99805.75;;;19.82;46.81
62544;BME280;48597;49.030;1.822;2022-12-29T05:34:13;99806.22;;;19.81;46.72
62544;BME280;48597;49.030;1.822;2022-12-29T05:36:39;99809.88;;;19.81;46.70
62544;BME280;48597;49.030;1.822;2022-12-29T05:39:05;99810.66;;;19.82;46.70
62544;BME280;48597;49.030;1.822;2022-12-29T05:41:32;99812.72;;;19.81;46.74
62544;BME280;48597;49.030;1.822;2022-12-29T05:43:58;99809.88;;;19.81;46.62
62544;BME280;48597;49.030;1.822;2022-12-29T05:46:23;99822.09;;;19.82;46.70
62544;BME280;48597;49.030;1.822;2022-12-29T05:48:48;99836.41;;;19.82;46.73
62544;BME280;48597;49.030;1.822;2022-12-29T05:51:14;99842.91;;;19.82;46.63
62544;BME280;48597;49.030;1.822;2022-12-29T05:53:39;99831.47;;;19.82;46.78
62544;BME280;48597;49.030;1.822;2022-12-29T05:56:05;99843.72;;;19.83;46.71
62544;BME280;48597;49.030;1.822;2022-12-29T05:58:30;99844.50;;;19.83;46.72
62544;BME280;48597;49.030;1.822;2022-12-29T06:00:55;99841.66;;;19.83;46.71
62544;BME280;48597;49.030;1.822;2022-12-29T06:03:21;99844.97;;;19.82;46.56
62544;BME280;48597;49.030;1.822;2022-12-29T06:05:46;99845.78;;;19.82;46.59
62544;BME280;48597;49.030;1.822;2022-12-29T06:08:12;99853.88;;;19.84;46.74
62544;BME280;48597;49.030;1.822;2022-12-29T06:10:38;99856.75;;;19.84;46.57
62544;BME280;48597;49.030;1.822;2022-12-29T06:13:03;99859.59;;;19.84;46.55
62544;BME280;48597;49.030;1.822;2022-12-29T06:15:31;99862.47;;;19.84;46.68
62544;BME280;48597;49.030;1.822;2022-12-29T06:17:56;99862.47;;;19.84;46.70
62544;BME280;48597;49.030;1.822;2022-12-29T06:20:22;99878.03;;;19.83;46.54
62544;BME280;48597;49.030;1.822;2022-12-29T06:22:47;99877.25;;;19.82;46.72
62544;BME280;48597;49.030;1.822;2022-12-29T06:25:13;99888.69;;;19.82;46.46
62544;BME280;48597;49.030;1.822;2022-12-29T06:27:38;99881.69;;;19.83;46.59
62544;BME280;48597;49.030;1.822;2022-12-29T06:30:04;99891.06;;;19.84;46.55
62544;BME280;48597;49.030;1.822;2022-12-29T06:32:30;99897.59;;;19.84;46.53
62544;BME280;48597;49.030;1.822;2022-12-29T06:34:55;99894.72;;;19.84;46.53
62544;BME280;48597;49.030;1.822;2022-12-29T06:37:21;99896.78;;;19.84;46.47
62544;BME280;48597;49.030;1.822;2022-12-29T06:39:46;99916.34;;;19.85;46.42
62544;BME280;48597;49.030;1.822;2022-12-29T06:42:11;99908.69;;;19.82;46.45
62544;BME280;48597;49.030;1.822;2022-12-29T06:44:37;99908.22;;;19.84;46.56
62544;BME280;48597;49.030;1.822;2022-12-29T06:47:02;99916.81;;;19.84;46.39
62544;BME280;48597;49.030;1.822;2022-12-29T06:49:27;99917.28;;;19.82;46.54
62544;BME280;48597;49.030;1.822;2022-12-29T06:51:53;99923.00;;;19.82;46.39
62544;BME280;48597;49.030;1.822;2022-12-29T06:54:18;99937.75;;;19.81;46.24
62544;BME280;48597;49.030;1.822;2022-12-29T06:56:44;99932.84;;;19.81;46.40
62544;BME280;48597;49.030;1.822;2022-12-29T06:59:09;99932.03;;;19.81;46.50
62544;BME280;48597;49.030;1.822;2022-12-29T07:01:35;99939.81;;;19.80;46.50
62544;BME280;48597;49.030;1.822;2022-12-29T07:04:01;99944.41;;;19.78;46.42
62544;BME280;48597;49.030;1.822;2022-12-29T07:06:27;99942.34;;;19.78;46.48
62544;BME280;48597;49.030;1.822;2022-12-29T07:08:53;99948.88;;;19.79;46.48
62544;BME280;48597;49.030;1.822;2022-12-29T07:11:20;99947.28;;;19.78;46.34
62544;BME280;48597;49.030;1.822;2022-12-29T07:13:46;99938.69;;;19.78;46.41
62544;BME280;48597;49.030;1.822;2022-12-29T07:16:11;99930.59;;;19.76;46.52
62544;BME280;48597;49.030;1.822;2022-12-29T07:18:36;99942.81;;;19.77;46.43
62544;BME280;48597;49.030;1.822;2022-12-29T07:21:02;99944.41;;;19.78;46.41
62544;BME280;48597;49.030;1.822;2022-12-29T07:23:28;99939.50;;;19.78;46.38
62544;BME280;48597;49.030;1.822;2022-12-29T07:26:05;99947.28;;;19.78;46.39
62544;BME280;48597;49.030;1.822;2022-12-29T07:28:31;99946.00;;;19.79;46.43
62544;BME280;48597;49.030;1.822;2022-12-29T07:30:58;99949.66;;;19.79;46.30
62544;BME280;48597;49.030;1.822;2022-12-29T07:33:24;99955.38;;;19.79;46.26
62544;BME280;48597;49.030;1.822;2022-12-29T07:35:49;99956.19;;;19.80;46.35
62544;BME280;48597;49.030;1.822;2022-12-29T07:38:15;99954.91;;;19.81;46.38
62544;BME280;48597;49.030;1.822;2022-12-29T07:40:41;99962.56;;;19.84;46.39
62544;BME280;48597;49.030;1.822;2022-12-29T07:43:07;99972.41;;;19.83;46.41
62544;BME280;48597;49.030;1.822;2022-12-29T07:45:32;99980.19;;;19.82;46.49
62544;BME280;48597;49.030;1.822;2022-12-29T07:47:57;99982.56;;;19.84;46.53
62544;BME280;48597;49.030;1.822;2022-12-29T07:50:23;99988.28;;;19.84;46.55
62544;BME280;48597;49.030;1.822;2022-12-29T07:52:48;99986.22;;;19.84;46.56
62544;BME280;48597;49.030;1.822;2022-12-29T07:55:15;99996.41;;;19.85;46.59
62544;BME280;48597;49.030;1.822;2022-12-29T07:57:41;100004.19;;;19.85;46.63
62544;BME280;48597;49.030;1.822;2022-12-29T08:00:06;99996.41;;;19.85;46.48
62544;BME280;48597;49.030;1.822;2022-12-29T08:02:32;100007.84;;;19.85;46.63
62544;BME280;48597;49.030;1.822;2022-12-29T08:04:57;100003.69;;;19.86;46.35
62544;BME280;48597;49.030;1.822;2022-12-29T08:07:23;100017.22;;;19.86;46.73
62544;BME280;48597;49.030;1.822;2022-12-29T08:09:48;100009.91;;;19.85;46.65
62544;BME280;48597;49.030;1.822;2022-12-29T08:12:13;100020.09;;;19.86;46.67
62544;BME280;48597;49.030;1.822;2022-12-29T08:14:39;100025.31;;;19.87;46.72
62544;BME280;48597;49.030;1.822;2022-12-29T08:17:04;100021.97;;;19.89;46.31
62544;BME280;48597;49.030;1.822;2022-12-29T08:19:29;100027.38;;;19.87;46.52
62544;BME280;48597;49.030;1.822;2022-12-29T08:21:55;100030.56;;;19.89;46.50
62544;BME280;48597;49.030;1.822;2022-12-29T08:24:20;100034.69;;;19.88;46.44
62544;BME280;48597;49.030;1.822;2022-12-29T08:26:46;100038.34;;;19.88;46.45
62544;BME280;48597;49.030;1.822;2022-12-29T08:29:11;100035.16;;;19.86;46.49
62544;BME280;48597;49.030;1.822;2022-12-29T08:31:36;100032.63;;;19.88;46.45
62544;BME280;48597;49.030;1.822;2022-12-29T08:34:02;100039.59;;;19.87;46.37
62544;BME280;48597;49.030;1.822;2022-12-29T08:36:28;100048.03;;;19.91;46.29
62544;BME280;48597;49.030;1.822;2022-12-29T08:38:54;100055.34;;;19.92;46.35
62544;BME280;48597;49.030;1.822;2022-12-29T08:41:20;100054.56;;;19.91;46.32
62544;BME280;48597;49.030;1.822;2022-12-29T08:43:46;100053.31;;;19.92;46.17
62544;BME280;48597;49.030;1.822;2022-12-29T08:46:12;100060.75;;;19.90;46.33
62544;BME280;48597;49.030;1.822;2022-12-29T08:48:37;100052.50;;;19.92;46.26
62544;BME280;48597;49.030;1.822;2022-12-29T08:51:03;100073.78;;;19.91;46.30
62544;BME280;48597;49.030;1.822;2022-12-29T08:53:28;100073.44;;;19.89;46.31
62544;BME280;48597;49.030;1.822;2022-12-29T08:55:58;100078.84;;;19.87;46.18
62544;BME280;48597;49.030;1.822;2022-12-29T08:58:25;100085.69;;;19.89;46.26
62544;BME280;48597;49.030;1.822;2022-12-29T09:00:52;100086.97;;;19.88;46.36
62544;BME280;48597;49.030;1.822;2022-12-29T09:03:18;100089.03;;;19.88;46.25
62544;BME280;48597;49.030;1.822;2022-12-29T09:05:47;100093.16;;;19.87;46.21
62544;BME280;48597;49.030;1.822;2022-12-29T09:08:13;100090.44;;;19.83;46.29
62544;BME280;48597;49.030;1.822;2022-12-29T09:10:38;100082.66;;;19.84;46.11
62544;BME280;48597;49.030;1.822;2022-12-29T09:13:03;100090.91;;;19.82;46.32
62544;BME280;48597;49.030;1.822;2022-12-29T09:15:29;100100.75;;;19.81;46.13
62544;BME280;48597;49.030;1.822;2022-12-29T09:17:54;100092.19;;;19.81;46.15
62544;BME280;48597;49.030;1.822;2022-12-29T09:20:20;100103.28;;;19.79;46.13
62544;BME280;48597;49.030;1.822;2022-12-29T09:22:47;100104.56;;;19.78;46.07
62544;BME280;48597;49.030;1.822;2022-12-29T09:25:13;100107.06;;;19.76;46.45
62544;BME280;48597;49.030;1.822;2022-12-29T09:27:40;100103.88;;;19.74;46.48
62544;BME280;48597;49.030;1.822;2022-12-29T09:30:07;100115.31;;;19.74;46.39
62544;BME280;48597;49.030;1.822;2022-12-29T09:32:34;100118.66;;;19.72;46.31
62544;BME280;48597;49.030;1.822;2022-12-29T09:34:59;100121.19;;;19.70;46.37
62544;BME280;48597;49.030;1.822;2022-12-29T09:37:25;100122.94;;;19.68;46.19
62544;BME280;48597;49.030;1.822;2022-12-29T09:39:50;100128.31;;;19.66;46.42
62544;BME280;48597;49.030;1.822;2022-12-29T09:42:38;100127.84;;;19.67;46.45
62544;BME280;48597;49.030;1.822;2022-12-29T09:47:36;100123.53;;;19.62;46.28
62544;BME280;48597;49.030;1.822;2022-12-29T09:50:08;100131.00;;;19.60;46.32
62544;BME280;48597;49.030;1.822;2022-12-29T09:52:40;100136.38;;;19.58;46.56
62544;BME280;48597;49.030;1.822;2022-12-29T09:55:14;100138.91;;;19.56;46.60
62544;BME280;48597;49.030;1.822;2022-12-29T09:57:52;100141.41;;;19.54;46.61
62544;BME280;48597;49.030;1.822;2022-12-29T10:00:21;100149.66;;;19.52;46.60
62544;BME280;48597;49.030;1.822;2022-12-29T10:02:52;100153.78;;;19.51;46.44
62544;BME280;48597;49.030;1.822;2022-12-29T10:08:30;100161.19;;;19.48;46.60
62544;BME280;48597;49.030;1.822;2022-12-29T10:11:13;100153.91;;;19.47;46.65
62544;BME280;48597;49.030;1.822;2022-12-29T10:13:58;100153.56;;;19.45;46.59
62544;BME280;48597;49.030;1.822;2022-12-29T10:24:44;100165.59;;;19.40;46.72
62544;BME280;48597;49.030;1.822;2022-12-29T10:27:13;100167.66;;;19.40;46.78
62544;BME280;48597;49.030;1.822;2022-12-29T10:29:55;100167.66;;;19.40;46.71
62544;BME280;48597;49.030;1.822;2022-12-29T10:32:28;100170.97;;;19.38;46.76
62544;BME280;48597;49.030;1.822;2022-12-29T10:34:58;100154.28;;;19.37;46.79
62544;BME280;48597;49.030;1.822;2022-12-29T10:40:26;100150.63;;;19.36;47.15
62544;BME280;48597;49.030;1.822;2022-12-29T10:42:55;100157.94;;;19.37;47.84
62544;BME280;48597;49.030;1.822;2022-12-29T10:45:24;100140.31;;;19.39;47.27
62544;BME280;48597;49.030;1.822;2022-12-29T10:47:57;100143.53;;;19.41;47.33
62544;BME280;48597;49.030;1.822;2022-12-29T10:50:26;100133.69;;;19.42;47.22
62544;BME280;48597;49.030;1.822;2022-12-29T10:52:53;100145.78;;;19.46;47.00
62544;BME280;48597;49.030;1.822;2022-12-29T10:55:22;100142.47;;;19.47;46.74
62544;BME280;48597;49.030;1.822;2022-12-29T10:57:50;100140.88;;;19.46;46.88
62544;BME280;48597;49.030;1.822;2022-12-29T11:00:21;100139.63;;;19.47;46.57
62544;BME280;48597;49.030;1.822;2022-12-29T11:05:49;100145.19;;;19.51;46.43
62544;BME280;48597;49.030;1.822;2022-12-29T11:08:22;100138.22;;;19.52;46.23
62544;BME280;48597;49.030;1.822;2022-12-29T11:11:01;100141.41;;;19.54;46.22
62544;BME280;48597;49.030;1.822;2022-12-29T11:13:31;100144.63;;;19.56;46.25
62544;BME280;48597;49.030;1.822;2022-12-29T11:15:56;100148.72;;;19.55;46.24
62544;BME280;48597;49.030;1.822;2022-12-29T11:18:28;100150.34;;;19.56;46.26
62544;BME280;48597;49.030;1.822;2022-12-29T11:20:59;100150.66;;;19.58;46.08
62544;BME280;48597;49.030;1.822;2022-12-29T11:23:40;100149.53;;;19.55;46.16
62544;BME280;48597;49.030;1.822;2022-12-29T11:28:46;100148.59;;;19.58;46.14
62544;BME280;48597;49.030;1.822;2022-12-29T11:31:16;100154.63;;;19.60;46.12
62544;BME280;48597;49.030;1.822;2022-12-29T11:33:41;100143.69;;;19.59;46.08
62544;BME280;48597;49.030;1.822;2022-12-29T11:36:16;100156.72;;;19.60;46.08
62544;BME280;48597;49.030;1.822;2022-12-29T11:38:52;100157.50;;;19.60;46.14
62544;BME280;48597;49.030;1.822;2022-12-29T11:41:24;100153.88;;;19.60;46.07
62544;BME280;48597;49.030;1.822;2022-12-29T11:43:52;100156.56;;;19.63;46.00
62544;BME280;48597;49.030;1.822;2022-12-29T11:46:30;100152.09;;;19.62;46.09
62544;BME280;48597;49.030;1.822;2022-12-29T11:48:57;100151.78;;;19.60;46.13
62544;BME280;48597;49.030;1.822;2022-12-29T11:51:30;100146.06;;;19.60;46.23
62544;BME280;48597;49.030;1.822;2022-12-29T11:54:01;100147.66;;;19.61;46.22
62544;BME280;48597;49.030;1.822;2022-12-29T11:56:39;100143.88;;;19.65;46.18
62544;BME280;48597;49.030;1.822;2022-12-29T12:01:56;100142.72;;;19.62;46.11
62544;BME280;48597;49.030;1.822;2022-12-29T12:04:26;100143.53;;;19.62;46.12
62544;BME280;48597;49.030;1.822;2022-12-29T12:07:10;100151.66;;;19.64;46.15
62544;BME280;48597;49.030;1.822;2022-12-29T12:09:51;100148.78;;;19.64;46.20
62544;BME280;48597;49.030;1.822;2022-12-29T12:14:58;100140.22;;;19.64;46.16
62544;BME280;48597;49.030;1.822;2022-12-29T12:17:50;100144.66;;;19.65;46.01
62544;BME280;48597;49.030;1.822;2022-12-29T12:20:45;100134.81;;;19.66;46.11
62544;BME280;48597;49.030;1.822;2022-12-29T12:25:48;100147.41;;;19.69;46.10
62544;BME280;48597;49.030;1.822;2022-12-29T12:31:01;100136.41;;;19.67;46.09
62544;BME280;48597;49.030;1.822;2022-12-29T12:33:37;100150.59;;;19.71;46.05
62544;BME280;48597;49.030;1.822;2022-12-29T12:36:32;100140.75;;;19.72;45.90
62544;BME280;48597;49.030;1.822;2022-12-29T12:39:18;100133.78;;;19.73;46.17
62544;BME280;48597;49.030;1.822;2022-12-29T12:44:58;100136.28;;;19.71;46.05
62544;BME280;48597;49.030;1.822;2022-12-29T12:47:45;100135.03;;;19.72;46.05
62544;BME280;48597;49.030;1.822;2022-12-29T12:50:32;100146.00;;;19.73;46.00
62544;BME280;48597;49.030;1.822;2022-12-29T12:53:19;100142.34;;;19.73;46.08
62544;BME280;48597;49.030;1.822;2022-12-29T12:58:52;100141.72;;;19.78;45.89
62544;BME280;48597;49.030;1.822;2022-12-29T13:19:08;100146.84;;;19.83;45.76
62544;BME280;48597;49.030;1.822;2022-12-29T13:26:39;100137.94;;;19.81;45.86
62544;BME280;48597;49.030;1.822;2022-12-29T13:29:44;100136.66;;;19.82;45.70
62544;BME280;48597;49.030;1.822;2022-12-29T13:33:07;100135.41;;;19.83;45.80
62544;BME280;48597;49.030;1.822;2022-12-29T13:35:14;100137.94;;;19.81;45.78
62544;BME280;48597;49.030;1.822;2022-12-29T13:37:51;100144.00;;;19.83;45.86
62544;BME280;48597;49.030;1.822;2022-12-29T13:40:22;100142.72;;;19.84;45.78
62544;BME280;48597;49.030;1.822;2022-12-29T13:42:50;100141.13;;;19.83;45.81
62544;BME280;48597;49.030;1.822;2022-12-29T13:45:20;100146.22;;;19.88;45.58
62544;BME280;48597;49.030;1.822;2022-12-29T13:48:01;100143.38;;;19.88;45.61
62544;BME280;48597;49.030;1.822;2022-12-29T13:50:32;100138.09;;;19.86;45.82
62544;BME280;48597;49.030;1.822;2022-12-29T13:53:41;100148.44;;;19.84;45.68
62544;BME280;48597;49.030;1.822;2022-12-29T13:58:40;100148.28;;;19.87;45.64
62544;BME280;48597;49.030;1.822;2022-12-29T14:01:48;100158.13;;;19.86;45.50
62544;BME280;48597;49.030;1.822;2022-12-29T14:04:27;100148.78;;;19.86;45.65
62544;BME280;48597;49.030;1.822;2022-12-29T14:07:02;100155.75;;;19.85;45.66
62544;BME280;48597;49.030;1.822;2022-12-29T14:17:36;100159.72;;;19.87;45.53
62544;BME280;48597;49.030;1.822;2022-12-29T14:20:02;100160.53;;;19.88;45.61
62544;BME280;48597;49.030;1.822;2022-12-29T14:22:29;100166.25;;;19.88;45.42
62544;BME280;48597;49.030;1.822;2022-12-29T14:24:55;100155.59;;;19.88;45.50
62544;BME280;48597;49.030;1.822;2022-12-29T14:29:47;100168.16;;;19.91;45.54
62544;BME280;48597;49.030;1.822;2022-12-29T14:34:57;100169.78;;;19.92;45.33
62544;BME280;48597;49.030;1.822;2022-12-29T14:42:48;100175.16;;;19.90;45.37
62544;BME280;48597;49.030;1.822;2022-12-29T14:47:44;100175.03;;;19.93;45.41
62544;BME280;48597;49.030;1.822;2022-12-29T14:53:01;100176.97;;;19.96;45.35
62544;BME280;48597;49.030;1.822;2022-12-29T14:55:40;100168.50;;;19.93;45.36
62544;BME280;48597;49.030;1.822;2022-12-29T14:58:20;100181.88;;;19.96;45.25
62544;BME280;48597;49.030;1.822;2022-12-29T15:00:46;100180.28;;;19.95;45.26
62544;BME280;48597;49.030;1.822;2022-12-29T15:03:25;100179.03;;;19.96;45.24
62544;BME280;48597;49.030;1.822;2022-12-29T15:05:59;100179.03;;;19.96;45.19
62544;BME280;48597;49.030;1.822;2022-12-29T15:08:37;100179.47;;;19.94;45.26
62544;BME280;48597;49.030;1.822;2022-12-29T15:11:13;100183.94;;;19.95;45.12
62544;BME280;48597;49.030;1.822;2022-12-29T15:13:42;100184.41;;;19.94;45.18
62544;BME280;48597;49.030;1.822;2022-12-29T15:16:31;100188.88;;;19.95;45.23